Time;durP1;ratioP1;P1;durP2;ratioP2;P2;SDS_P1;SDS_P2;PMS_P1;PMS_P2;Temp;Humidity;BMP_temperature;BMP_pressure;BME280_temperature;BME280_humidity;BME280_pressure;Samples;Min_cycle;Max_cycle;Signal;HPM_P1;HPM_P2
2021/05/09 00:00:16;;;;;;;10.32;6.03;;;;;;;9.50;66.29;101102.69;5010018;28;20465;-72
2021/05/09 00:02:42;;;;;;;8.05;5.00;;;;;;;9.50;66.35;101087.22;5011213;28;20062;-70
2021/05/09 00:05:08;;;;;;;8.70;4.75;;;;;;;9.40;66.72;101096.16;5011486;28;20080;-73
2021/05/09 00:07:34;;;;;;;7.68;5.45;;;;;;;9.45;66.30;101065.47;5010977;28;20396;-69
2021/05/09 00:10:00;;;;;;;6.43;5.03;;;;;;;9.36;66.55;101091.66;5011241;28;20026;-70
2021/05/09 00:12:26;;;;;;;7.68;5.28;;;;;;;9.46;66.78;101088.75;5011342;28;20034;-69
2021/05/09 00:14:51;;;;;;;7.00;4.85;;;;;;;9.73;66.34;101111.56;5010991;28;20026;-69
2021/05/09 00:17:17;;;;;;;6.45;4.82;;;;;;;9.13;65.37;101075.88;5011286;28;20069;-70
2021/05/09 00:19:42;;;;;;;6.28;5.07;;;;;;;9.27;65.99;101116.94;5010725;28;20025;-68
2021/05/09 00:22:08;;;;;;;8.25;5.95;;;;;;;9.26;65.86;101110.91;5011157;28;20030;-71
2021/05/09 00:24:33;;;;;;;7.20;5.45;;;;;;;9.01;65.89;101085.53;5010965;28;20029;-68
2021/05/09 00:26:59;;;;;;;7.07;5.15;;;;;;;9.07;65.89;101115.09;5011320;28;20454;-70
2021/05/09 00:29:24;;;;;;;6.03;4.57;;;;;;;9.06;66.64;101131.34;5010766;28;20037;-72
2021/05/09 00:31:50;;;;;;;6.50;5.43;;;;;;;8.95;67.36;101132.44;5011164;28;20493;-72
2021/05/09 00:34:15;;;;;;;9.32;5.13;;;;;;;9.04;66.62;101096.00;5011331;28;20038;-67
2021/05/09 00:36:40;;;;;;;5.95;4.43;;;;;;;9.35;65.87;101134.56;5010833;28;20660;-68
2021/05/09 00:39:06;;;;;;;5.82;4.30;;;;;;;9.43;66.32;101134.97;5008925;28;20050;-68
2021/05/09 00:41:31;;;;;;;8.05;4.50;;;;;;;9.46;66.61;101135.13;5008466;28;20033;-68
2021/05/09 00:43:57;;;;;;;6.70;4.47;;;;;;;9.04;65.95;101142.34;5010687;28;20033;-69
2021/05/09 00:46:22;;;;;;;7.63;5.50;;;;;;;9.09;66.15;101140.91;5006663;28;20030;-73
2021/05/09 00:48:48;;;;;;;6.18;4.50;;;;;;;9.12;65.68;101142.75;5009418;28;20022;-71
2021/05/09 00:51:13;;;;;;;6.40;4.57;;;;;;;8.89;65.89;101114.09;5009852;28;20498;-67
2021/05/09 00:53:42;;;;;;;7.93;4.28;;;;;;;9.25;65.20;101142.63;5010610;28;20491;-67
2021/05/09 00:56:12;;;;;;;6.13;3.90;;;;;;;9.33;65.11;101146.50;5009962;28;20121;-68
2021/05/09 00:58:38;;;;;;;6.10;4.28;;;;;;;9.12;65.23;101093.81;5010374;28;20022;-71
2021/05/09 01:01:03;;;;;;;6.70;4.13;;;;;;;9.39;65.86;101145.91;5011517;28;20053;-71
2021/05/09 01:03:31;;;;;;;7.43;4.10;;;;;;;9.51;65.82;101144.00;5008504;28;20120;-71
2021/05/09 01:05:59;;;;;;;8.13;4.03;;;;;;;9.50;65.70;101137.06;5011589;28;20030;-70
2021/05/09 01:08:28;;;;;;;6.07;3.67;;;;;;;9.61;65.42;101158.25;5011794;28;20041;-72
2021/05/09 01:10:53;;;;;;;7.22;3.95;;;;;;;9.33;65.26;101161.06;5011102;28;20034;-72
2021/05/09 01:13:20;;;;;;;5.22;3.78;;;;;;;8.61;64.11;101132.28;5024558;28;20041;-67
2021/05/09 01:15:46;;;;;;;6.82;4.00;;;;;;;8.63;65.55;101165.03;5008946;28;20050;-72
2021/05/09 01:18:11;;;;;;;7.40;3.85;;;;;;;8.84;65.96;101164.47;5010870;28;20408;-71
2021/05/09 01:20:37;;;;;;;7.63;4.43;;;;;;;8.86;65.45;101166.31;5010665;28;20396;-71
2021/05/09 01:23:04;;;;;;;6.20;4.70;;;;;;;8.52;65.73;101141.28;5010773;28;20033;-72
2021/05/09 01:25:29;;;;;;;8.48;3.75;;;;;;;8.68;64.68;101179.03;5009758;28;20420;-71
2021/05/09 01:27:56;;;;;;;5.13;4.07;;;;;;;8.04;66.90;101181.38;5010708;28;20048;-73
2021/05/09 01:30:22;;;;;;;5.85;3.92;;;;;;;7.99;67.83;101172.47;5010616;28;20113;-69
2021/05/09 01:32:47;;;;;;;5.32;3.72;;;;;;;8.14;67.61;101186.25;5010671;28;20520;-73
2021/05/09 01:35:13;;;;;;;6.82;3.28;;;;;;;7.77;70.32;101186.63;5010342;28;20036;-71
2021/05/09 01:37:39;;;;;;;7.50;3.17;;;;;;;8.04;70.47;101196.78;5010518;28;20026;-71
2021/05/09 01:40:06;;;;;;;4.35;2.80;;;;;;;7.99;70.67;101198.19;5010809;28;20087;-69
2021/05/09 01:42:32;;;;;;;6.50;2.80;;;;;;;8.15;70.01;101190.59;5010709;28;20495;-71
2021/05/09 01:44:58;;;;;;;4.70;2.83;;;;;;;8.31;69.12;101194.94;5010404;28;20053;-73
2021/05/09 01:47:24;;;;;;;7.95;3.47;;;;;;;8.16;70.04;101207.81;5010529;28;20468;-70
2021/05/09 01:49:50;;;;;;;5.47;3.88;;;;;;;7.94;70.46;101183.38;4991603;28;20125;-74
2021/05/09 01:52:16;;;;;;;7.82;3.72;;;;;;;7.68;71.48;101194.69;5014432;28;20473;-70
2021/05/09 01:54:43;;;;;;;6.60;3.70;;;;;;;7.76;71.04;101185.75;5016865;28;20084;-72
2021/05/09 01:57:09;;;;;;;6.22;3.60;;;;;;;8.01;70.27;101218.06;5016951;28;20032;-72
2021/05/09 01:59:34;;;;;;;4.45;3.25;;;;;;;8.18;68.22;101216.47;5015844;28;20034;-71
2021/05/09 02:02:00;;;;;;;4.53;3.30;;;;;;;8.29;67.94;101223.94;5031223;28;20045;-76
2021/05/09 02:04:26;;;;;;;5.40;3.50;;;;;;;8.15;67.55;101176.81;5015538;28;20021;-70
2021/05/09 02:06:51;;;;;;;5.68;3.72;;;;;;;8.35;67.62;101227.75;5016999;28;20460;-68
2021/05/09 02:09:17;;;;;;;6.50;3.20;;;;;;;8.28;67.37;101232.47;5016959;28;20396;-69
2021/05/09 02:11:42;;;;;;;6.30;3.50;;;;;;;7.91;67.63;101185.78;5016870;28;20446;-70
2021/05/09 02:14:08;;;;;;;5.78;3.70;;;;;;;8.31;67.08;101240.34;5016440;28;20053;-72
2021/05/09 02:16:34;;;;;;;11.02;3.97;;;;;;;8.45;66.28;101231.75;5012252;28;20045;-68
2021/05/09 02:19:01;;;;;;;6.47;3.53;;;;;;;8.42;66.01;101221.28;5017311;28;20018;-68
2021/05/09 02:21:26;;;;;;;5.40;2.83;;;;;;;8.21;65.19;101231.19;5015482;28;20439;-70
2021/05/09 02:23:52;;;;;;;6.20;3.05;;;;;;;7.29;65.59;101109.28;5015276;28;20554;-71
2021/05/09 02:26:25;;;;;;;6.97;3.55;;;;;;;7.97;65.97;101240.94;5015738;28;20028;-68
2021/05/09 02:28:53;;;;;;;6.57;3.55;;;;;;;8.13;66.08;101238.47;5016757;28;20495;-70
2021/05/09 02:31:19;;;;;;;5.90;3.50;;;;;;;8.19;66.05;101258.53;5031740;28;20030;-70
2021/05/09 02:33:44;;;;;;;6.65;4.03;;;;;;;7.85;66.91;101247.13;5017048;28;20064;-71
2021/05/09 02:36:10;;;;;;;6.03;3.72;;;;;;;8.01;67.36;101260.88;5016501;28;20026;-70
2021/05/09 02:38:36;;;;;;;6.10;3.53;;;;;;;8.09;66.37;101245.13;5016831;28;20036;-72
2021/05/09 02:41:02;;;;;;;5.45;3.72;;;;;;;7.75;66.80;101207.13;5015288;28;20408;-71
2021/05/09 02:43:27;;;;;;;5.90;3.70;;;;;;;8.20;66.31;101271.47;5016120;28;20038;-70
2021/05/09 02:45:52;;;;;;;15.98;4.40;;;;;;;8.22;66.41;101275.03;5016647;28;20378;-69
2021/05/09 02:48:18;;;;;;;7.80;3.38;;;;;;;7.83;66.71;101223.00;5016646;28;20384;-70
2021/05/09 02:50:43;;;;;;;5.40;3.75;;;;;;;8.30;66.78;101280.63;5016642;28;20030;-70
2021/05/09 02:53:09;;;;;;;5.63;3.55;;;;;;;8.18;65.71;101234.47;5016856;28;20030;-69
2021/05/09 02:55:34;;;;;;;7.18;3.67;;;;;;;8.17;66.19;101297.00;5014795;28;20034;-69
2021/05/09 02:58:00;;;;;;;6.50;3.83;;;;;;;8.05;66.43;101285.97;5017134;28;20033;-68
2021/05/09 03:00:25;;;;;;;10.05;3.80;;;;;;;7.93;66.84;101281.88;5016053;28;20033;-70
2021/05/09 03:02:51;;;;;;;6.95;3.50;;;;;;;8.14;66.71;101311.34;5014493;28;20033;-72
2021/05/09 03:05:16;;;;;;;12.45;3.50;;;;;;;8.19;66.20;101316.00;5013907;28;20472;-69
2021/05/09 03:07:41;;;;;;;11.38;3.60;;;;;;;8.26;64.18;101302.72;5013933;28;20026;-71
2021/05/09 03:10:07;;;;;;;7.53;3.75;;;;;;;8.28;63.51;101317.38;5014165;28;20055;-69
2021/05/09 03:12:33;;;;;;;13.63;3.80;;;;;;;8.03;63.87;101301.31;5013755;28;20038;-68
2021/05/09 03:14:59;;;;;;;6.72;3.67;;;;;;;7.67;63.78;101320.53;5014364;28;20036;-72
2021/05/09 03:17:24;;;;;;;6.68;3.80;;;;;;;7.41;64.81;101324.91;5014076;28;20408;-70
2021/05/09 03:19:50;;;;;;;7.32;3.72;;;;;;;7.57;65.21;101337.06;5013581;28;20030;-69
2021/05/09 03:22:15;;;;;;;5.53;3.47;;;;;;;7.62;65.56;101338.22;5013438;28;20036;-69
2021/05/09 03:24:41;;;;;;;7.15;3.63;;;;;;;7.59;65.28;101310.66;5013637;28;20473;-74
2021/05/09 03:27:06;;;;;;;5.97;3.58;;;;;;;7.68;65.60;101345.44;5013642;28;20468;-70
2021/05/09 03:29:32;;;;;;;8.93;3.78;;;;;;;7.56;66.26;101335.25;5013526;28;20026;-71
2021/05/09 03:31:57;;;;;;;5.93;3.22;;;;;;;7.39;66.73;101295.66;5013767;28;20455;-69
2021/05/09 03:34:23;;;;;;;5.38;3.30;;;;;;;7.87;66.23;101357.75;5013879;28;20037;-68
2021/05/09 03:36:48;;;;;;;4.75;3.40;;;;;;;7.56;66.51;101355.81;5013248;28;20113;-69
2021/05/09 03:39:14;;;;;;;7.03;3.53;;;;;;;7.54;67.04;101372.81;5013613;28;20478;-71
2021/05/09 03:41:39;;;;;;;7.45;4.20;;;;;;;7.33;67.90;101367.19;5012601;28;20026;-71
2021/05/09 03:44:06;;;;;;;6.10;3.92;;;;;;;7.47;67.29;101381.81;5013404;28;20029;-68
2021/05/09 03:46:31;;;;;;;5.50;4.05;;;;;;;7.51;67.09;101382.91;5013044;28;20748;-68
2021/05/09 03:48:57;;;;;;;7.15;3.85;;;;;;;7.40;67.57;101371.94;5013365;28;20026;-72
2021/05/09 03:51:22;;;;;;;6.20;4.03;;;;;;;7.33;68.27;101391.22;5013287;28;20174;-69
2021/05/09 03:53:48;;;;;;;5.55;3.88;;;;;;;7.22;69.48;101399.91;5012909;28;20022;-70
2021/05/09 03:56:13;;;;;;;7.72;4.25;;;;;;;7.05;69.78;101398.78;5013077;28;20105;-72
2021/05/09 03:58:39;;;;;;;6.68;3.65;;;;;;;7.23;70.02;101406.81;5013054;28;20026;-69
2021/05/09 04:01:04;;;;;;;7.57;4.72;;;;;;;7.05;71.01;101407.38;4994476;28;20030;-69
2021/05/09 04:03:31;;;;;;;12.93;4.05;;;;;;;6.97;71.40;101401.72;5013213;28;20033;-72
2021/05/09 04:05:57;;;;;;;10.30;4.47;;;;;;;7.28;71.20;101414.03;5011976;28;20034;-70
2021/05/09 04:08:24;;;;;;;6.93;4.20;;;;;;;7.19;72.26;101423.72;5013249;28;20416;-70
2021/05/09 04:10:51;;;;;;;7.10;4.18;;;;;;;7.21;72.89;101432.38;5012936;28;20037;-69
2021/05/09 04:13:17;;;;;;;7.53;3.88;;;;;;;6.93;72.66;101427.13;5013171;28;20034;-71
2021/05/09 04:15:43;;;;;;;7.75;5.25;;;;;;;7.14;72.65;101432.78;5011420;28;20475;-73
2021/05/09 04:18:09;;;;;;;6.32;4.00;;;;;;;7.52;71.58;101443.78;5012468;28;20069;-70
2021/05/09 04:20:35;;;;;;;7.72;4.20;;;;;;;7.33;71.99;101439.09;5012844;28;20034;-73
2021/05/09 04:23:17;;;;;;;8.55;4.15;;;;;;;7.26;71.42;101443.88;5012668;28;20056;-72
2021/05/09 04:25:52;;;;;;;9.90;4.22;;;;;;;7.43;71.54;101434.69;5012673;28;20029;-75
2021/05/09 04:28:19;;;;;;;7.97;3.95;;;;;;;7.07;70.67;101335.59;5012716;28;20029;-72
2021/05/09 04:30:44;;;;;;;9.10;4.13;;;;;;;7.67;70.23;101451.59;5012614;28;20026;-71
2021/05/09 04:33:10;;;;;;;9.63;4.30;;;;;;;7.61;71.37;101452.09;5012282;28;20032;-73
2021/05/09 04:35:40;;;;;;;55.13;6.57;;;;;;;7.39;71.91;101458.41;5011548;28;20033;-72
2021/05/09 04:38:05;;;;;;;6.07;4.30;;;;;;;7.55;71.92;101455.16;5012653;28;20032;-72
2021/05/09 04:40:31;;;;;;;7.07;4.82;;;;;;;7.80;71.54;101463.56;5012259;28;20030;-70
2021/05/09 04:43:11;;;;;;;12.40;5.07;;;;;;;7.98;70.97;101463.84;5012672;28;20056;-71
2021/05/09 04:45:37;;;;;;;;;;;;;;;8.16;69.93;101461.53;5013019;28;20490;-73
2021/05/09 04:48:04;;;;;;;6.38;4.25;;;;;;;8.13;69.86;101453.66;5012512;28;19913;-72
2021/05/09 04:50:30;;;;;;;7.43;4.90;;;;;;;8.11;69.79;101445.81;5012252;28;20057;-72
2021/05/09 04:52:55;;;;;;;10.15;4.70;;;;;;;8.10;69.98;101408.91;5011937;28;20046;-70
2021/05/09 04:55:21;;;;;;;6.18;4.10;;;;;;;8.56;70.68;101456.31;5012305;28;20018;-70
2021/05/09 04:57:46;;;;;;;7.72;4.38;;;;;;;8.82;69.51;101464.72;5012159;28;20025;-74
2021/05/09 05:00:32;;;;;;;7.30;4.00;;;;;;;8.98;69.36;101464.84;5028950;28;20052;-70
2021/05/09 05:02:57;;;;;;;8.55;3.78;;;;;;;9.10;69.35;101466.34;5029240;28;20034;-70
2021/05/09 05:05:24;;;;;;;10.27;4.57;;;;;;;9.23;69.32;101459.47;5029413;28;20095;-69
2021/05/09 05:07:50;;;;;;;8.43;4.55;;;;;;;9.22;70.37;101416.44;5029084;28;20069;-71
2021/05/09 05:10:16;;;;;;;7.90;4.10;;;;;;;9.34;70.39;101421.41;5029424;28;20466;-72
2021/05/09 05:12:41;;;;;;;7.57;4.43;;;;;;;9.76;69.01;101474.44;5028846;28;20037;-70
2021/05/09 05:15:07;;;;;;;8.95;4.10;;;;;;;9.77;71.23;101471.97;5029088;28;20512;-71
2021/05/09 05:17:33;;;;;;;10.07;4.10;;;;;;;9.92;70.74;101474.50;5028327;28;20115;-72
2021/05/09 05:19:59;;;;;;;7.28;3.95;;;;;;;10.14;71.88;101466.25;5029143;28;20053;-72
2021/05/09 05:22:24;;;;;;;9.18;3.92;;;;;;;10.40;71.37;101473.66;5029133;28;20041;-71
2021/05/09 05:24:49;;;;;;;7.45;3.17;;;;;;;10.65;71.50;101481.03;4979768;28;20049;-72
2021/05/09 05:27:15;;;;;;;7.88;3.50;;;;;;;10.82;71.82;101484.50;5028623;28;20077;-73
2021/05/09 05:29:40;;;;;;;7.30;3.30;;;;;;;10.90;71.52;101485.75;5028681;28;20041;-72
2021/05/09 05:32:06;;;;;;;6.47;3.35;;;;;;;11.03;72.04;101487.31;5015580;28;20481;-72
2021/05/09 05:34:31;;;;;;;8.50;3.15;;;;;;;11.01;70.44;101452.75;5027128;28;20083;-70
2021/05/09 05:36:57;;;;;;;8.50;2.83;;;;;;;11.29;69.48;101498.06;5011724;28;20030;-72
2021/05/09 05:39:22;;;;;;;7.97;2.80;;;;;;;11.43;68.52;101507.41;5011932;28;20037;-73
2021/05/09 05:41:47;;;;;;;17.65;4.60;;;;;;;11.53;70.56;101516.53;5011517;28;20026;-72
2021/05/09 05:44:13;;;;;;;13.80;3.97;;;;;;;11.26;68.31;101446.22;5011852;28;20030;-72
2021/05/09 05:46:38;;;;;;;20.27;4.22;;;;;;;11.68;69.30;101511.22;5025280;28;20041;-73
2021/05/09 05:49:05;;;;;;;20.10;4.55;;;;;;;11.69;70.57;101505.25;5011293;28;20026;-74
2021/05/09 05:51:31;;;;;;;21.73;5.03;;;;;;;11.82;66.97;101507.63;5011615;28;20022;-69
2021/05/09 05:53:57;;;;;;;18.40;4.55;;;;;;;12.16;67.74;101523.88;5011357;28;20040;-71
2021/05/09 05:56:24;;;;;;;30.17;5.43;;;;;;;12.25;66.58;101500.13;5011511;28;20065;-71
2021/05/09 05:58:50;;;;;;;17.33;4.07;;;;;;;12.38;65.17;101520.63;5010259;28;20037;-72
2021/05/09 06:01:15;;;;;;;12.77;4.32;;;;;;;12.50;65.62;101519.41;5010638;28;20037;-73
2021/05/09 06:03:41;;;;;;;12.55;3.70;;;;;;;12.63;65.25;101513.97;5011243;28;20037;-72
2021/05/09 06:06:06;;;;;;;5.25;2.80;;;;;;;12.69;63.46;101513.38;5008947;28;20038;-76
2021/05/09 06:08:32;;;;;;;10.50;2.85;;;;;;;12.64;64.99;101518.34;5010762;28;20057;-70
2021/05/09 06:10:57;;;;;;;16.80;3.90;;;;;;;12.83;63.62;101527.81;5011062;28;20042;-73
2021/05/09 06:13:24;;;;;;;13.52;3.70;;;;;;;13.00;58.70;101528.56;5009130;28;20504;-74
2021/05/09 06:15:51;;;;;;;11.02;3.17;;;;;;;13.21;57.46;101528.63;5008526;28;20050;-72
2021/05/09 06:18:17;;;;;;;24.52;4.50;;;;;;;13.38;58.51;101518.13;4999532;28;20038;-72
2021/05/09 06:20:43;;;;;;;12.18;3.20;;;;;;;13.57;57.56;101531.03;5003681;28;20076;-72
2021/05/09 06:23:10;;;;;;;7.35;2.00;;;;;;;13.62;54.10;101538.13;5010760;28;20030;-70
2021/05/09 06:25:36;;;;;;;10.98;2.33;;;;;;;13.68;53.64;101525.41;5010716;28;20014;-70
2021/05/09 06:28:03;;;;;;;11.02;2.35;;;;;;;13.82;52.48;101531.16;5010040;28;20460;-70
2021/05/09 06:30:28;;;;;;;7.60;2.20;;;;;;;13.89;53.03;101534.09;5010507;28;20030;-73
2021/05/09 06:32:54;;;;;;;13.65;2.22;;;;;;;13.98;52.51;101543.06;5009425;28;20424;-70
2021/05/09 06:35:19;;;;;;;8.35;2.13;;;;;;;14.12;54.11;101541.00;5010412;28;20485;-73
2021/05/09 06:37:45;;;;;;;6.47;1.95;;;;;;;14.03;52.70;101511.25;5010705;28;20022;-72
2021/05/09 06:40:12;;;;;;;10.40;2.55;;;;;;;14.30;54.56;101531.34;5014843;28;20029;-70
2021/05/09 06:42:37;;;;;;;5.70;1.95;;;;;;;14.49;53.84;101532.94;5014457;28;20061;-72
2021/05/09 06:45:20;;;;;;;9.98;2.20;;;;;;;14.50;53.23;101541.63;5013766;28;20451;-70
2021/05/09 06:47:45;;;;;;;8.25;2.30;;;;;;;14.59;52.92;101535.88;5026939;28;20492;-72
2021/05/09 06:50:11;;;;;;;16.27;2.90;;;;;;;14.79;53.73;101545.34;5013643;28;20022;-72
2021/05/09 06:52:36;;;;;;;13.70;3.40;;;;;;;14.91;52.27;101539.69;5014036;28;20014;-72
2021/05/09 06:55:03;;;;;;;32.13;8.05;;;;;;;14.78;52.66;101495.88;5013859;28;20018;-70
2021/05/09 06:57:29;;;;;;;15.30;4.28;;;;;;;15.08;54.14;101540.31;5013632;28;20088;-71
2021/05/09 06:59:54;;;;;;;7.55;2.35;;;;;;;14.98;54.03;101536.50;5013844;28;20489;-71
2021/05/09 07:02:19;;;;;;;6.65;1.90;;;;;;;15.12;51.03;101549.13;5013019;28;20531;-72
2021/05/09 07:04:45;;;;;;;9.65;1.98;;;;;;;15.20;51.01;101556.34;5013643;28;20408;-70
2021/05/09 07:07:10;;;;;;;7.72;1.85;;;;;;;15.27;51.81;101557.44;5013437;28;20025;-72
2021/05/09 07:09:38;;;;;;;5.13;2.17;;;;;;;15.40;52.04;101555.28;5013741;28;20093;-70
2021/05/09 07:12:04;;;;;;;11.90;2.88;;;;;;;15.45;52.89;101565.03;5013306;28;20109;-70
2021/05/09 07:14:30;;;;;;;3.90;1.38;;;;;;;15.58;51.81;101557.63;5013159;28;20026;-71
2021/05/09 07:16:56;;;;;;;6.50;1.70;;;;;;;15.68;52.01;101571.00;5012258;28;20101;-73
2021/05/09 07:19:22;;;;;;;7.03;1.75;;;;;;;15.72;52.02;101566.78;5011228;28;20476;-70
2021/05/09 07:21:52;;;;;;;3.60;1.80;;;;;;;15.76;53.21;101554.75;5013366;28;20049;-71
2021/05/09 07:24:17;;;;;;;5.60;1.58;;;;;;;15.68;52.42;101567.53;5013182;28;20025;-71
2021/05/09 07:26:43;;;;;;;3.15;1.70;;;;;;;15.76;53.46;101573.84;5012825;28;20099;-72
2021/05/09 07:29:09;;;;;;;2.63;1.60;;;;;;;15.66;52.32;101577.88;5013569;28;20478;-73
2021/05/09 07:31:40;;;;;;;3.63;1.77;;;;;;;15.74;52.57;101559.91;5013565;28;20018;-70
2021/05/09 07:34:05;;;;;;;2.50;1.75;;;;;;;15.89;52.06;101569.09;5013868;28;20034;-73
2021/05/09 07:36:31;;;;;;;2.58;1.77;;;;;;;15.94;52.69;101568.41;5013274;28;20547;-76
2021/05/09 07:38:56;;;;;;;5.38;1.92;;;;;;;16.07;53.21;101553.19;5013732;28;20538;-71
2021/05/09 07:41:21;;;;;;;6.93;2.05;;;;;;;16.25;52.77;101563.28;5012661;28;20045;-73
2021/05/09 07:43:48;;;;;;;2.83;1.70;;;;;;;15.96;52.35;101532.91;5011911;28;20038;-70
2021/05/09 07:46:13;;;;;;;1.52;1.40;;;;;;;16.09;53.11;101559.34;5013399;28;20022;-71
2021/05/09 07:48:39;;;;;;;3.08;1.58;;;;;;;15.66;53.52;101549.25;5012250;28;20408;-74
2021/05/09 07:51:04;;;;;;;2.90;1.98;;;;;;;15.61;54.67;101571.63;5012524;28;20104;-71
2021/05/09 07:53:30;;;;;;;3.92;1.73;;;;;;;15.94;54.21;101576.22;5013320;28;20025;-73
2021/05/09 07:55:55;;;;;;;2.67;1.48;;;;;;;16.28;52.88;101579.03;5013048;28;20021;-71
2021/05/09 07:58:22;;;;;;;4.72;1.70;;;;;;;16.45;51.62;101556.09;5011610;28;20087;-73
2021/05/09 08:00:49;;;;;;;2.10;1.60;;;;;;;16.52;52.33;101567.59;5012256;28;20308;-70
2021/05/09 08:03:15;;;;;;;10.10;2.20;;;;;;;16.49;52.27;101566.66;5012925;28;20030;-70
2021/05/09 08:05:41;;;;;;;2.95;1.77;;;;;;;16.66;51.79;101559.34;5012852;28;20025;-73
2021/05/09 08:08:07;;;;;;;3.00;1.58;;;;;;;16.95;51.61;101580.19;5013212;28;20030;-75
2021/05/09 08:10:38;;;;;;;2.45;1.70;;;;;;;16.93;50.41;101581.84;5012376;28;20495;-69
2021/05/09 08:13:04;;;;;;;2.10;1.63;;;;;;;16.55;50.82;101575.47;5012793;28;20026;-75
2021/05/09 08:15:30;;;;;;;5.38;1.90;;;;;;;16.37;51.37;101581.91;5012532;28;20037;-70
2021/05/09 08:17:56;;;;;;;5.10;2.40;;;;;;;16.55;50.24;101572.88;5009805;28;20468;-74
2021/05/09 08:20:22;;;;;;;2.38;1.77;;;;;;;16.59;52.41;101577.38;5010180;28;20025;-74
2021/05/09 08:22:48;;;;;;;3.05;1.70;;;;;;;16.93;50.86;101587.06;5011766;28;20037;-70
2021/05/09 08:25:16;;;;;;;3.00;1.50;;;;;;;17.15;49.29;101579.88;5010665;28;20030;-74
2021/05/09 08:27:42;;;;;;;4.90;1.85;;;;;;;17.32;49.77;101579.44;5011009;28;20484;-74
2021/05/09 08:30:09;;;;;;;5.38;2.95;;;;;;;17.57;49.25;101578.34;5011749;28;20030;-71
2021/05/09 08:32:35;;;;;;;2.45;1.83;;;;;;;17.28;48.80;101568.94;5010055;28;20507;-73
2021/05/09 08:35:02;;;;;;;6.25;2.10;;;;;;;17.29;49.21;101577.63;5012653;28;20033;-73
2021/05/09 08:37:28;;;;;;;3.38;1.80;;;;;;;17.57;48.15;101578.34;5010683;28;20037;-71
2021/05/09 08:39:53;;;;;;;4.03;1.60;;;;;;;17.81;45.98;101582.44;5011662;28;20026;-74
2021/05/09 08:42:20;;;;;;;2.30;1.45;;;;;;;17.86;45.28;101575.63;5011437;28;20038;-70
2021/05/09 08:44:50;;;;;;;2.67;1.85;;;;;;;17.52;46.10;101577.34;5012586;28;20030;-73
2021/05/09 08:47:36;;;;;;;3.00;1.65;;;;;;;17.52;46.15;101580.88;5012511;28;20034;-71
2021/05/09 08:50:05;;;;;;;2.55;1.42;;;;;;;17.67;44.08;101569.94;5012083;28;20018;-72
2021/05/09 08:52:33;;;;;;;2.75;1.58;;;;;;;17.77;44.68;101566.69;5011851;28;20022;-73
2021/05/09 08:54:58;;;;;;;2.80;1.50;;;;;;;17.69;44.32;101573.44;5012352;28;20165;-73
2021/05/09 08:57:24;;;;;;;7.18;1.70;;;;;;;17.63;44.30;101568.97;5012249;28;20021;-70
2021/05/09 08:59:49;;;;;;;8.82;2.28;;;;;;;17.44;45.27;101585.00;5012523;28;20478;-73
2021/05/09 09:02:15;;;;;;;4.43;1.70;;;;;;;17.69;44.34;101583.91;5012165;28;20556;-73
2021/05/09 09:04:47;;;;;;;3.75;1.60;;;;;;;17.71;44.72;101578.72;5011190;28;20036;-75
2021/05/09 09:07:13;;;;;;;7.32;2.83;;;;;;;17.85;43.29;101573.84;5010553;28;20038;-73
2021/05/09 09:09:44;;;;;;;2.03;1.40;;;;;;;17.74;43.37;101582.28;5021668;28;20044;-76
2021/05/09 09:12:10;;;;;;;8.65;5.10;;;;;;;17.58;43.38;101578.41;5010545;28;20046;-71
2021/05/09 09:14:50;;;;;;;4.85;1.80;;;;;;;17.27;43.53;101535.84;5008571;28;20049;-74
2021/05/09 09:17:17;;;;;;;3.33;1.42;;;;;;;17.53;44.44;101566.06;5010590;28;20108;-73
2021/05/09 09:20:17;;;;;;;4.15;1.50;;;;;;;17.93;42.59;101578.41;5010967;28;20034;-73
2021/05/09 09:23:01;;;;;;;;;;;;;;;18.32;41.67;101568.00;5011849;28;20113;-73
2021/05/09 09:25:33;;;;;;;2.85;1.40;;;;;;;18.33;41.65;101541.91;5023958;28;20427;-74
2021/05/09 09:27:59;;;;;;;5.03;1.08;;;;;;;18.32;41.14;101561.06;5011131;28;20029;-73
2021/05/09 09:30:28;;;;;;;1.88;1.10;;;;;;;17.98;40.61;101564.59;5026022;28;20026;-73
2021/05/09 09:33:14;;;;;;;2.78;1.00;;;;;;;17.90;41.61;101561.78;5009793;28;20423;-73
2021/05/09 09:35:41;;;;;;;1.85;1.10;;;;;;;17.79;41.55;101548.44;5008917;28;20029;-73
2021/05/09 09:38:32;;;;;;;1.48;1.38;;;;;;;17.58;41.96;101557.53;5009789;28;20044;-75
2021/05/09 09:41:15;;;;;;;4.82;1.30;;;;;;;17.46;42.00;101531.97;5009167;28;20088;-72
2021/05/09 09:43:59;;;;;;;2.40;1.40;;;;;;;17.74;40.66;101550.94;5010687;28;20032;-74
2021/05/09 09:46:49;;;;;;;3.08;1.40;;;;;;;17.79;42.00;101554.56;5006971;28;20057;-76
2021/05/09 09:49:27;;;;;;;3.65;1.25;;;;;;;17.70;41.70;101545.63;5009899;28;20057;-77
2021/05/09 09:51:58;;;;;;;2.42;1.30;;;;;;;17.72;42.03;101536.06;5009617;28;20022;-73
2021/05/09 09:54:41;;;;;;;2.20;1.38;;;;;;;18.07;40.70;101546.56;5009631;28;20026;-73
2021/05/09 09:57:28;;;;;;;4.60;1.17;;;;;;;18.72;39.40;101542.72;5010215;28;20029;-73
2021/05/09 10:00:07;;;;;;;3.10;1.30;;;;;;;19.33;36.93;101552.66;5009501;28;20223;-73
2021/05/09 10:02:33;;;;;;;8.63;1.48;;;;;;;19.56;36.99;101538.22;5010387;28;20026;-73
2021/05/09 10:05:00;;;;;;;1.95;1.30;;;;;;;19.98;37.52;101527.56;5010363;28;20459;-73
2021/05/09 10:07:27;;;;;;;2.28;1.13;;;;;;;20.30;36.68;101527.13;5010676;28;20033;-76
2021/05/09 10:09:55;;;;;;;2.85;1.23;;;;;;;19.38;36.91;101528.31;5010520;28;20022;-74
2021/05/09 10:12:23;;;;;;;1.27;1.08;;;;;;;19.30;38.37;101536.88;5010584;28;20170;-74
2021/05/09 10:14:49;;;;;;;1.83;1.20;;;;;;;19.68;39.64;101531.44;5012822;28;20069;-73
2021/05/09 10:17:15;;;;;;;5.10;1.50;;;;;;;20.06;36.56;101525.91;5013159;28;20158;-74
2021/05/09 10:19:43;;;;;;;1.75;1.13;;;;;;;20.40;35.09;101533.38;4995401;28;20384;-72
2021/05/09 10:22:28;;;;;;;1.63;1.15;;;;;;;20.51;36.30;101524.81;5014119;28;20476;-73
2021/05/09 10:24:55;;;;;;;4.47;1.20;;;;;;;20.29;35.06;101528.00;5014608;28;20018;-74
2021/05/09 10:27:20;;;;;;;2.65;1.42;;;;;;;20.21;36.49;101527.88;5014582;28;20026;-73
2021/05/09 10:29:48;;;;;;;3.60;1.23;;;;;;;20.52;33.35;101521.31;5014029;28;20028;-73
2021/05/09 10:32:19;;;;;;;1.38;1.10;;;;;;;20.14;33.10;101521.66;5014090;28;20464;-73
2021/05/09 10:34:51;;;;;;;2.38;1.13;;;;;;;20.31;32.85;101519.28;5026118;28;20038;-71
2021/05/09 10:37:35;;;;;;;2.08;1.10;;;;;;;20.78;33.54;101518.13;5013121;28;20030;-72
2021/05/09 10:40:25;;;;;;;3.90;1.30;;;;;;;21.04;33.47;101514.94;5012976;28;20050;-72
2021/05/09 10:43:07;;;;;;;3.00;1.30;;;;;;;20.83;36.23;101513.81;5028138;28;20430;-73
2021/05/09 10:45:36;;;;;;;2.95;1.10;;;;;;;20.81;34.56;101514.66;5013975;28;20018;-71
2021/05/09 10:50:54;;;;;;;4.53;1.65;;;;;;;21.11;33.27;101466.88;5010446;28;20092;-73
2021/05/09 10:56:21;;;;;;;1.73;1.00;;;;;;;21.14;32.49;101508.03;5012496;28;20048;-74
2021/05/09 10:58:47;;;;;;;2.20;1.20;;;;;;;21.28;32.58;101506.44;4977328;28;20540;-75
2021/05/09 11:01:25;;;;;;;2.03;1.20;;;;;;;20.46;33.32;101512.47;4991057;28;20058;-75
2021/05/09 11:04:01;;;;;;;4.57;1.60;;;;;;;20.45;36.58;101510.69;4991566;28;20050;-73
2021/05/09 11:06:27;;;;;;;2.22;1.25;;;;;;;20.55;33.05;101506.47;4990405;28;20031;-73
2021/05/09 11:09:13;;;;;;;1.88;1.30;;;;;;;20.16;32.97;101500.72;4990668;28;20069;-73
2021/05/09 11:11:38;;;;;;;5.20;1.70;;;;;;;20.14;32.50;101505.94;4987878;28;20032;-72
2021/05/09 11:14:11;;;;;;;2.33;1.20;;;;;;;20.68;32.47;101497.88;4990801;28;20046;-73
2021/05/09 11:17:01;;;;;;;5.68;1.90;;;;;;;20.66;30.48;101457.59;4989425;28;20082;-72
2021/05/09 11:19:45;;;;;;;3.92;1.50;;;;;;;20.62;33.33;101461.97;4987047;28;20092;-72
2021/05/09 11:22:11;;;;;;;4.97;1.13;;;;;;;21.21;31.47;101491.47;4990970;28;20114;-73
2021/05/09 11:24:39;;;;;;;1.95;1.20;;;;;;;21.12;31.99;101483.50;4986578;28;20036;-72
2021/05/09 11:27:08;;;;;;;1.80;1.30;;;;;;;20.73;31.96;101496.22;4988229;28;20062;-72
2021/05/09 11:29:34;;;;;;;5.63;3.42;;;;;;;20.99;32.25;101495.63;4989104;28;20452;-72
2021/05/09 11:32:07;;;;;;;4.18;2.63;;;;;;;21.40;31.92;101473.25;4990659;28;20027;-72
2021/05/09 11:34:33;;;;;;;4.88;1.38;;;;;;;21.59;33.27;101490.06;4990366;28;20181;-73
2021/05/09 11:37:00;;;;;;;5.10;1.70;;;;;;;21.62;33.45;101471.69;5006068;28;20061;-73